Time;durP1;ratioP1;P1;durP2;ratioP2;P2;SDS_P1;SDS_P2;PMS_P1;PMS_P2;Temp;Humidity;BMP_temperature;BMP_pressure;BME280_temperature;BME280_humidity;BME280_pressure;Samples;Min_cycle;Max_cycle;Signal;HPM_P1;HPM_P2
2021/07/26 00:00:46;;;;;;;6.55;3.17;;;;;;;;;;5091428;28;20024;-51
2021/07/26 00:03:12;;;;;;;4.18;2.33;;;;;;;;;;5092731;28;20073;-50
2021/07/26 00:05:38;;;;;;;3.30;2.25;;;;;;;;;;5080100;28;20020;-51
2021/07/26 00:08:04;;;;;;;7.88;2.45;;;;;;;;;;5072373;28;20510;-51
2021/07/26 00:10:30;;;;;;;4.32;2.70;;;;;;;;;;5071650;28;20058;-51
2021/07/26 00:12:56;;;;;;;4.25;2.28;;;;;;;;;;5071755;28;20072;-51
2021/07/26 00:15:22;;;;;;;3.90;2.42;;;;;;;;;;5073223;28;20060;-51
2021/07/26 00:17:48;;;;;;;3.13;2.00;;;;;;;;;;5075936;28;20415;-51
2021/07/26 00:20:15;;;;;;;5.43;2.58;;;;;;;;;;5075993;28;20032;-51
2021/07/26 00:22:43;;;;;;;3.88;2.47;;;;;;;;;;5074908;28;20158;-51
2021/07/26 00:25:09;;;;;;;3.90;2.40;;;;;;;;;;5075815;28;20032;-51
2021/07/26 00:27:36;;;;;;;4.20;2.30;;;;;;;;;;5075612;28;20029;-51
2021/07/26 00:30:02;;;;;;;6.50;2.55;;;;;;;;;;5075543;28;20020;-50
2021/07/26 00:32:29;;;;;;;8.00;2.40;;;;;;;;;;5075228;28;20469;-51
2021/07/26 00:34:55;;;;;;;9.85;2.17;;;;;;;;;;5075340;28;20366;-51
2021/07/26 00:37:26;;;;;;;13.40;2.53;;;;;;;;;;5075200;28;20098;-51
2021/07/26 00:39:52;;;;;;;;;;;;;;;;;;5076161;28;20354;-51
2021/07/26 00:42:18;;;;;;;5.38;2.70;;;;;;;;;;5074393;28;19959;-51
2021/07/26 00:44:44;;;;;;;4.78;2.92;;;;;;;;;;5075625;28;20025;-51
2021/07/26 00:47:10;;;;;;;4.45;3.00;;;;;;;;;;5075590;28;20024;-51
2021/07/26 00:49:36;;;;;;;3.55;2.45;;;;;;;;;;5075355;28;20101;-51
2021/07/26 00:52:03;;;;;;;7.00;2.75;;;;;;;;;;5074242;28;20039;-50
2021/07/26 00:54:34;;;;;;;8.32;3.67;;;;;;;;;;5075665;28;20024;-51
2021/07/26 00:57:00;;;;;;;6.25;3.38;;;;;;;;;;5075462;28;20356;-51
2021/07/26 00:59:27;;;;;;;9.55;3.95;;;;;;;;;;5075315;28;20028;-50
2021/07/26 01:01:53;;;;;;;6.90;2.75;;;;;;;;;;5074127;28;20056;-51
2021/07/26 01:04:19;;;;;;;8.15;3.50;;;;;;;;;;5075254;28;20056;-51
2021/07/26 01:06:45;;;;;;;18.60;3.40;;;;;;;;;;5074538;28;20025;-51
2021/07/26 01:09:11;;;;;;;6.57;3.53;;;;;;;;;;5074956;28;20073;-51
2021/07/26 01:11:38;;;;;;;6.63;2.75;;;;;;;;;;5074208;28;20033;-50
2021/07/26 01:14:04;;;;;;;9.43;2.53;;;;;;;;;;5074925;28;20434;-51
2021/07/26 01:16:30;;;;;;;4.97;2.72;;;;;;;;;;5074827;28;20021;-51
2021/07/26 01:18:58;;;;;;;5.30;2.67;;;;;;;;;;5074787;28;20032;-51
2021/07/26 01:21:24;;;;;;;7.10;3.00;;;;;;;;;;5073810;28;20036;-51
2021/07/26 01:23:52;;;;;;;5.20;2.55;;;;;;;;;;5074263;28;20028;-50
2021/07/26 01:26:19;;;;;;;4.93;2.90;;;;;;;;;;5074005;28;20023;-51
2021/07/26 01:28:46;;;;;;;4.43;2.60;;;;;;;;;;5086988;28;20055;-51
2021/07/26 01:31:12;;;;;;;4.40;2.42;;;;;;;;;;5094164;28;20054;-51
2021/07/26 01:33:38;;;;;;;7.70;2.50;;;;;;;;;;5094485;28;20065;-51
2021/07/26 01:36:05;;;;;;;9.00;2.65;;;;;;;;;;5095049;28;20020;-51
2021/07/26 01:38:31;;;;;;;3.25;2.20;;;;;;;;;;5094279;28;20024;-51
2021/07/26 01:41:02;;;;;;;6.32;3.15;;;;;;;;;;5093725;28;20078;-51
2021/07/26 01:43:40;;;;;;;3.58;2.65;;;;;;;;;;5075751;28;20031;-51
2021/07/26 01:46:06;;;;;;;3.50;2.33;;;;;;;;;;5073886;28;20086;-51
2021/07/26 01:48:39;;;;;;;3.40;2.30;;;;;;;;;;5074365;28;20032;-50
2021/07/26 01:51:11;;;;;;;5.07;2.55;;;;;;;;;;5072683;28;20127;-51
2021/07/26 01:53:37;;;;;;;4.20;2.50;;;;;;;;;;5074167;28;20025;-50
2021/07/26 01:56:04;;;;;;;10.40;2.30;;;;;;;;;;5073925;28;20016;-51
2021/07/26 01:58:30;;;;;;;4.35;2.67;;;;;;;;;;5074176;28;20055;-51
2021/07/26 02:00:56;;;;;;;13.02;2.35;;;;;;;;;;5088332;28;20028;-51
2021/07/26 02:03:22;;;;;;;3.60;2.13;;;;;;;;;;5093376;28;20047;-51
2021/07/26 02:05:48;;;;;;;4.10;2.15;;;;;;;;;;5092191;28;20063;-51
2021/07/26 02:08:14;;;;;;;5.30;2.35;;;;;;;;;;5092318;28;20044;-51
2021/07/26 02:10:42;;;;;;;3.90;2.42;;;;;;;;;;5092266;28;20452;-51
2021/07/26 02:13:07;;;;;;;9.45;3.20;;;;;;;;;;5070103;28;20437;-51
2021/07/26 02:15:33;;;;;;;5.50;2.40;;;;;;;;;;5073349;28;20024;-51
2021/07/26 02:17:59;;;;;;;3.92;2.35;;;;;;;;;;5073614;28;20077;-51
2021/07/26 02:20:25;;;;;;;4.95;2.60;;;;;;;;;;5073402;28;20362;-51
2021/07/26 02:22:51;;;;;;;4.85;2.38;;;;;;;;;;5072841;28;20101;-51
2021/07/26 02:25:19;;;;;;;5.25;2.15;;;;;;;;;;5074026;28;20059;-51
2021/07/26 02:27:45;;;;;;;3.58;2.20;;;;;;;;;;5073112;28;20137;-51
2021/07/26 02:30:12;;;;;;;4.22;2.70;;;;;;;;;;5073340;28;20024;-51
2021/07/26 02:32:38;;;;;;;3.92;2.00;;;;;;;;;;5072531;28;20041;-51
2021/07/26 02:35:04;;;;;;;6.38;2.97;;;;;;;;;;5073556;28;20032;-52
2021/07/26 02:37:30;;;;;;;2.95;2.10;;;;;;;;;;5073280;28;20078;-51
2021/07/26 02:39:56;;;;;;;7.18;2.90;;;;;;;;;;5072912;28;20020;-51
2021/07/26 02:42:22;;;;;;;4.05;2.47;;;;;;;;;;5071874;28;20108;-51
2021/07/26 02:44:48;;;;;;;4.40;2.70;;;;;;;;;;5073109;28;20033;-51
2021/07/26 02:47:14;;;;;;;5.57;2.67;;;;;;;;;;5073026;28;20021;-50
2021/07/26 02:49:40;;;;;;;8.15;2.45;;;;;;;;;;5072995;28;20029;-51
2021/07/26 02:52:06;;;;;;;6.82;3.13;;;;;;;;;;5072319;28;20044;-51
2021/07/26 02:54:32;;;;;;;5.32;3.03;;;;;;;;;;5072774;28;20025;-51
2021/07/26 02:56:58;;;;;;;6.53;2.60;;;;;;;;;;5072891;28;20129;-51
2021/07/26 02:59:24;;;;;;;4.43;2.30;;;;;;;;;;5073310;28;20021;-51
2021/07/26 03:01:51;;;;;;;5.22;2.47;;;;;;;;;;5072178;28;20024;-51
2021/07/26 03:04:17;;;;;;;9.43;2.53;;;;;;;;;;5072690;28;20023;-51
2021/07/26 03:06:43;;;;;;;7.30;2.75;;;;;;;;;;5072828;28;20024;-51
2021/07/26 03:09:10;;;;;;;5.75;3.33;;;;;;;;;;5072824;28;20052;-51
2021/07/26 03:11:36;;;;;;;6.45;3.22;;;;;;;;;;5071957;28;20081;-51
2021/07/26 03:14:03;;;;;;;6.07;2.78;;;;;;;;;;5073117;28;20048;-51
2021/07/26 03:16:29;;;;;;;7.03;2.58;;;;;;;;;;5072841;28;20114;-51
2021/07/26 03:18:55;;;;;;;5.13;2.97;;;;;;;;;;5072379;28;20454;-51
2021/07/26 03:21:21;;;;;;;6.93;2.60;;;;;;;;;;5071866;28;20033;-51
2021/07/26 03:23:48;;;;;;;3.80;2.47;;;;;;;;;;5072405;28;20495;-51
2021/07/26 03:26:14;;;;;;;7.32;2.88;;;;;;;;;;5068541;28;20052;-51
2021/07/26 03:28:40;;;;;;;4.20;2.60;;;;;;;;;;5084747;28;20051;-51
2021/07/26 03:31:06;;;;;;;5.45;2.58;;;;;;;;;;5084937;28;20032;-51
2021/07/26 03:33:32;;;;;;;4.18;2.60;;;;;;;;;;5092021;28;20036;-51
2021/07/26 03:35:58;;;;;;;7.85;2.95;;;;;;;;;;5092191;28;20022;-51
2021/07/26 03:38:25;;;;;;;5.05;2.53;;;;;;;;;;5093149;28;20416;-51
2021/07/26 03:40:51;;;;;;;3.97;2.63;;;;;;;;;;5087167;28;20351;-51
2021/07/26 03:43:17;;;;;;;5.60;2.67;;;;;;;;;;5087500;28;20442;-51
2021/07/26 03:45:44;;;;;;;6.90;3.78;;;;;;;;;;5092442;28;20077;-51
2021/07/26 03:48:10;;;;;;;4.72;2.42;;;;;;;;;;5092776;28;20024;-51
2021/07/26 03:50:36;;;;;;;4.88;2.50;;;;;;;;;;5093346;28;20028;-51
2021/07/26 03:53:02;;;;;;;3.08;2.15;;;;;;;;;;5096562;28;20114;-51
2021/07/26 03:55:30;;;;;;;10.05;2.83;;;;;;;;;;5096312;28;20020;-51
2021/07/26 03:58:00;;;;;;;5.05;2.42;;;;;;;;;;5096736;28;20039;-51
2021/07/26 04:00:27;;;;;;;6.78;2.47;;;;;;;;;;5090316;28;20051;-51
2021/07/26 04:03:39;;;;;;;7.63;2.42;;;;;;;;;;5075597;28;20024;-51
2021/07/26 04:08:16;;;;;;;5.10;2.25;;;;;;;;;;5075973;28;20446;-51
2021/07/26 04:11:30;;;;;;;4.43;2.40;;;;;;;;;;5079414;28;20039;-51
2021/07/26 04:13:28;;;;;;;4.60;2.15;;;;;;;;;;5092874;28;20639;-51
2021/07/26 04:15:54;;;;;;;3.70;2.40;;;;;;;;;;5096465;28;20024;-50
2021/07/26 04:18:20;;;;;;;4.22;2.20;;;;;;;;;;5094769;28;20262;-50
2021/07/26 04:20:46;;;;;;;5.30;2.30;;;;;;;;;;5094922;28;20515;-51
2021/07/26 04:23:12;;;;;;;8.80;2.10;;;;;;;;;;5095792;28;20111;-51
2021/07/26 04:25:38;;;;;;;5.35;2.38;;;;;;;;;;5096173;28;20024;-51
2021/07/26 04:28:04;;;;;;;5.07;2.35;;;;;;;;;;5096234;28;20085;-51
2021/07/26 04:30:30;;;;;;;4.35;2.65;;;;;;;;;;5095448;28;20025;-52
2021/07/26 04:32:56;;;;;;;3.70;2.03;;;;;;;;;;5095589;28;20123;-51
2021/07/26 04:35:22;;;;;;;4.22;2.63;;;;;;;;;;5083323;28;20381;-51
2021/07/26 04:37:48;;;;;;;8.18;3.85;;;;;;;;;;5075107;28;20120;-51
2021/07/26 04:40:14;;;;;;;4.65;2.65;;;;;;;;;;5075629;28;20032;-51
2021/07/26 04:42:41;;;;;;;5.95;2.72;;;;;;;;;;5074443;28;20418;-51
2021/07/26 04:45:08;;;;;;;3.38;2.30;;;;;;;;;;5075511;28;20031;-51
2021/07/26 04:47:34;;;;;;;4.80;2.67;;;;;;;;;;5075138;28;20031;-51
2021/07/26 04:50:00;;;;;;;4.32;2.00;;;;;;;;;;5075447;28;20021;-51
2021/07/26 04:52:27;;;;;;;4.13;2.22;;;;;;;;;;5074507;28;20469;-51
2021/07/26 04:54:53;;;;;;;7.07;3.17;;;;;;;;;;5075214;28;20354;-51
2021/07/26 04:57:19;;;;;;;5.45;2.65;;;;;;;;;;5074975;28;20028;-51
2021/07/26 04:59:45;;;;;;;6.80;3.17;;;;;;;;;;5074816;28;20054;-51
2021/07/26 05:02:12;;;;;;;10.45;3.15;;;;;;;;;;5074149;28;20024;-51
2021/07/26 05:04:38;;;;;;;7.25;3.45;;;;;;;;;;5075024;28;20024;-51
2021/07/26 05:07:04;;;;;;;6.60;2.53;;;;;;;;;;5074735;28;20024;-51
2021/07/26 05:09:30;;;;;;;5.45;3.22;;;;;;;;;;5075195;28;20021;-51
2021/07/26 05:12:01;;;;;;;8.00;3.22;;;;;;;;;;5073951;28;20051;-51
2021/07/26 05:14:27;;;;;;;4.32;2.60;;;;;;;;;;5085251;28;20035;-50
2021/07/26 05:16:53;;;;;;;7.05;2.85;;;;;;;;;;5094806;28;20032;-51
2021/07/26 05:19:19;;;;;;;12.30;3.50;;;;;;;;;;5094706;28;20016;-51
2021/07/26 05:21:45;;;;;;;5.20;2.78;;;;;;;;;;5093672;28;20421;-50
2021/07/26 05:24:11;;;;;;;7.65;2.78;;;;;;;;;;5095110;28;20027;-51
2021/07/26 05:26:37;;;;;;;3.70;2.53;;;;;;;;;;5094943;28;20057;-51
2021/07/26 05:29:03;;;;;;;3.63;2.45;;;;;;;;;;5094547;28;20024;-51
2021/07/26 05:31:29;;;;;;;5.47;2.65;;;;;;;;;;5093639;28;20028;-51
2021/07/26 05:33:55;;;;;;;3.72;2.33;;;;;;;;;;5094172;28;20055;-51
2021/07/26 05:36:23;;;;;;;4.68;2.50;;;;;;;;;;5074530;28;20578;-51
2021/07/26 05:38:50;;;;;;;3.67;2.40;;;;;;;;;;5074273;28;20111;-51
2021/07/26 05:41:16;;;;;;;7.43;3.20;;;;;;;;;;5073814;28;20017;-51
2021/07/26 05:43:42;;;;;;;6.60;3.22;;;;;;;;;;5074042;28;20027;-51
2021/07/26 05:46:08;;;;;;;4.78;3.38;;;;;;;;;;5074121;28;20017;-51
2021/07/26 05:48:34;;;;;;;11.93;3.58;;;;;;;;;;5073804;28;20112;-51
2021/07/26 05:51:00;;;;;;;11.60;3.35;;;;;;;;;;5073266;28;20036;-51
2021/07/26 05:53:26;;;;;;;5.13;2.70;;;;;;;;;;5074368;28;20345;-51
2021/07/26 05:55:52;;;;;;;8.60;3.58;;;;;;;;;;5073667;28;20029;-51
2021/07/26 05:58:18;;;;;;;6.78;3.40;;;;;;;;;;5073890;28;20025;-51
2021/07/26 06:00:46;;;;;;;6.78;3.58;;;;;;;;;;5073328;28;20450;-51
2021/07/26 06:03:12;;;;;;;8.68;3.65;;;;;;;;;;5073490;28;20029;-51
2021/07/26 06:05:38;;;;;;;6.68;3.92;;;;;;;;;;5073728;28;20044;-51
2021/07/26 06:08:05;;;;;;;6.30;3.40;;;;;;;;;;5074897;28;20078;-51
2021/07/26 06:10:31;;;;;;;10.52;4.53;;;;;;;;;;5093271;28;20056;-51
2021/07/26 06:12:57;;;;;;;5.57;3.67;;;;;;;;;;5092815;28;20067;-51
2021/07/26 06:15:23;;;;;;;7.65;3.15;;;;;;;;;;5094043;28;20023;-51
2021/07/26 06:17:49;;;;;;;7.40;4.13;;;;;;;;;;5093205;28;20027;-51
2021/07/26 06:20:15;;;;;;;6.07;3.63;;;;;;;;;;5085929;28;20331;-51
2021/07/26 06:22:41;;;;;;;7.25;3.55;;;;;;;;;;5085250;28;20043;-51
2021/07/26 06:25:09;;;;;;;10.20;3.50;;;;;;;;;;5090013;28;20107;-51
2021/07/26 06:27:36;;;;;;;6.95;3.53;;;;;;;;;;5093808;28;20105;-51
2021/07/26 06:30:02;;;;;;;8.80;3.67;;;;;;;;;;5093187;28;20024;-51
2021/07/26 06:32:31;;;;;;;10.20;3.85;;;;;;;;;;5089085;28;20152;-51
2021/07/26 06:34:57;;;;;;;7.10;3.97;;;;;;;;;;5087573;28;20060;-51
2021/07/26 06:37:23;;;;;;;8.80;3.63;;;;;;;;;;5073018;28;20442;-51
2021/07/26 06:39:49;;;;;;;11.93;4.47;;;;;;;;;;5078553;28;20099;-51
2021/07/26 06:42:17;;;;;;;6.70;4.00;;;;;;;;;;5084907;28;20399;-51
2021/07/26 06:44:44;;;;;;;14.02;4.75;;;;;;;;;;5085881;28;20028;-51
2021/07/26 06:47:10;;;;;;;14.07;4.18;;;;;;;;;;5083010;28;20032;-51
2021/07/26 06:49:36;;;;;;;7.25;3.83;;;;;;;;;;5083933;28;20027;-51
2021/07/26 06:52:03;;;;;;;6.55;3.33;;;;;;;;;;5087857;28;20382;-51
2021/07/26 06:54:29;;;;;;;7.45;4.20;;;;;;;;;;5086690;28;20024;-51
2021/07/26 06:56:55;;;;;;;6.95;3.58;;;;;;;;;;5084140;28;20032;-51
2021/07/26 06:59:21;;;;;;;8.48;3.83;;;;;;;;;;5091939;28;20040;-51
2021/07/26 07:01:47;;;;;;;10.63;3.50;;;;;;;;;;5090282;28;20105;-51
2021/07/26 07:04:16;;;;;;;11.25;4.25;;;;;;;;;;5080148;28;20083;-51
2021/07/26 07:06:42;;;;;;;9.35;4.30;;;;;;;;;;5085094;28;20035;-51
2021/07/26 07:09:08;;;;;;;6.63;3.10;;;;;;;;;;5083273;28;20016;-51
2021/07/26 07:11:34;;;;;;;8.95;3.85;;;;;;;;;;5081646;28;20024;-51
2021/07/26 07:14:00;;;;;;;5.93;3.00;;;;;;;;;;5089469;28;20210;-51
2021/07/26 07:16:26;;;;;;;5.55;3.25;;;;;;;;;;5093279;28;20167;-51
2021/07/26 07:18:53;;;;;;;11.27;4.57;;;;;;;;;;5091925;28;20042;-51
2021/07/26 07:21:23;;;;;;;10.13;4.30;;;;;;;;;;5091259;28;20119;-51
2021/07/26 07:23:49;;;;;;;10.18;3.72;;;;;;;;;;5093160;28;20028;-51
2021/07/26 07:26:16;;;;;;;5.90;3.50;;;;;;;;;;5097547;28;20052;-51
2021/07/26 07:28:44;;;;;;;5.13;3.72;;;;;;;;;;5097121;28;20061;-51
2021/07/26 07:31:10;;;;;;;6.55;3.13;;;;;;;;;;5095897;28;20031;-51
2021/07/26 07:33:38;;;;;;;6.72;3.45;;;;;;;;;;5097265;28;20024;-51
2021/07/26 07:36:04;;;;;;;11.27;3.45;;;;;;;;;;5094156;28;20036;-51
2021/07/26 07:38:30;;;;;;;10.07;4.68;;;;;;;;;;5087120;28;20361;-51
2021/07/26 07:40:58;;;;;;;11.05;4.60;;;;;;;;;;5095530;28;20085;-51
2021/07/26 07:43:24;;;;;;;6.75;3.38;;;;;;;;;;5096797;28;20040;-51
2021/07/26 07:45:50;;;;;;;4.43;2.85;;;;;;;;;;5087325;28;20024;-51
2021/07/26 07:48:18;;;;;;;7.55;3.80;;;;;;;;;;5084674;28;20663;-51
2021/07/26 07:50:44;;;;;;;6.47;3.28;;;;;;;;;;5084421;28;20025;-51
2021/07/26 07:53:10;;;;;;;7.18;3.50;;;;;;;;;;5086054;28;20042;-51
2021/07/26 07:55:36;;;;;;;5.30;3.38;;;;;;;;;;5086429;28;20271;-51
2021/07/26 07:58:03;;;;;;;6.38;3.88;;;;;;;;;;5080906;28;20054;-51
2021/07/26 08:00:29;;;;;;;13.68;5.18;;;;;;;;;;5085449;28;20019;-51
2021/07/26 08:02:56;;;;;;;12.13;4.05;;;;;;;;;;5085971;28;20032;-51
2021/07/26 08:05:22;;;;;;;12.18;4.43;;;;;;;;;;5085069;28;20031;-51
2021/07/26 08:07:48;;;;;;;6.78;4.43;;;;;;;;;;5082294;28;20020;-51
2021/07/26 08:10:14;;;;;;;6.78;3.67;;;;;;;;;;5085673;28;20016;-51
2021/07/26 08:12:41;;;;;;;6.88;3.95;;;;;;;;;;5084360;28;20127;-51
2021/07/26 08:15:07;;;;;;;7.13;4.25;;;;;;;;;;5082054;28;20107;-51
2021/07/26 08:17:33;;;;;;;7.22;4.10;;;;;;;;;;5082090;28;20020;-51
2021/07/26 08:19:59;;;;;;;6.22;3.92;;;;;;;;;;5084918;28;20037;-51
2021/07/26 08:22:25;;;;;;;9.98;4.20;;;;;;;;;;5085211;28;20039;-51
2021/07/26 08:24:51;;;;;;;5.85;3.72;;;;;;;;;;5088110;28;20511;-51
2021/07/26 08:27:17;;;;;;;5.50;2.92;;;;;;;;;;5085602;28;20042;-51
2021/07/26 08:29:43;;;;;;;11.32;3.70;;;;;;;;;;5095967;28;20020;-51
2021/07/26 08:32:09;;;;;;;7.63;3.47;;;;;;;;;;5094934;28;20020;-49
2021/07/26 08:34:35;;;;;;;8.40;4.45;;;;;;;;;;5095907;28;20442;-50
2021/07/26 08:37:01;;;;;;;6.57;3.85;;;;;;;;;;5091167;28;20016;-50
2021/07/26 08:39:28;;;;;;;6.30;3.17;;;;;;;;;;5093798;28;20054;-50
2021/07/26 08:41:54;;;;;;;6.28;3.60;;;;;;;;;;5094499;28;20032;-50
2021/07/26 08:44:20;;;;;;;5.72;3.45;;;;;;;;;;5095183;28;20022;-50
2021/07/26 08:46:46;;;;;;;7.80;3.70;;;;;;;;;;5095188;28;20066;-50
2021/07/26 08:49:12;;;;;;;7.20;3.25;;;;;;;;;;5095485;28;20066;-50
2021/07/26 08:51:43;;;;;;;7.22;3.70;;;;;;;;;;5094762;28;20123;-50
2021/07/26 08:54:11;;;;;;;5.05;2.95;;;;;;;;;;5095073;28;20016;-50
2021/07/26 08:56:37;;;;;;;4.72;2.85;;;;;;;;;;5095643;28;20047;-50
2021/07/26 08:59:03;;;;;;;7.78;3.25;;;;;;;;;;5098817;28;20016;-50
2021/07/26 09:01:29;;;;;;;6.43;3.35;;;;;;;;;;5114462;27;20403;-51
2021/07/26 09:03:57;;;;;;;6.15;2.90;;;;;;;;;;5105549;28;20016;-50
2021/07/26 09:06:24;;;;;;;8.20;2.40;;;;;;;;;;5094873;28;20449;-50
2021/07/26 09:08:50;;;;;;;5.88;3.28;;;;;;;;;;5089936;28;20449;-50
2021/07/26 09:11:16;;;;;;;4.78;2.40;;;;;;;;;;5087300;28;20024;-50
2021/07/26 09:13:45;;;;;;;5.25;3.10;;;;;;;;;;5094966;28;20028;-54
2021/07/26 09:16:14;;;;;;;5.85;3.00;;;;;;;;;;5091203;28;20032;-50
2021/07/26 09:18:41;;;;;;;6.53;2.78;;;;;;;;;;5094721;28;20074;-50
2021/07/26 09:21:07;;;;;;;4.95;2.80;;;;;;;;;;5090930;28;20449;-50
2021/07/26 09:23:36;;;;;;;4.30;2.80;;;;;;;;;;5094688;28;20054;-50
2021/07/26 09:26:22;;;;;;;8.52;3.67;;;;;;;;;;5094809;28;20020;-50
2021/07/26 09:28:48;;;;;;;4.50;2.15;;;;;;;;;;5087979;28;20060;-51
2021/07/26 09:31:14;;;;;;;9.80;3.17;;;;;;;;;;5093460;28;20099;-51
2021/07/26 09:33:41;;;;;;;9.02;3.50;;;;;;;;;;5088936;28;20062;-51
2021/07/26 09:36:18;;;;;;;5.63;3.13;;;;;;;;;;5079465;28;20217;-51
2021/07/26 09:38:53;;;;;;;6.50;3.35;;;;;;;;;;5086326;28;20118;-51
2021/07/26 09:41:37;;;;;;;4.78;2.53;;;;;;;;;;5083002;28;20108;-50
2021/07/26 09:44:05;;;;;;;10.00;3.22;;;;;;;;;;5089118;28;20107;-50
2021/07/26 09:46:31;;;;;;;7.07;2.88;;;;;;;;;;5085963;28;20047;-51
2021/07/26 09:49:13;;;;;;;4.60;3.10;;;;;;;;;;5085808;28;20031;-50
2021/07/26 09:51:40;;;;;;;6.80;4.32;;;;;;;;;;5085975;28;20071;-50
2021/07/26 09:54:06;;;;;;;5.30;3.05;;;;;;;;;;5076208;28;20033;-50
2021/07/26 09:56:33;;;;;;;6.22;3.30;;;;;;;;;;5073953;28;20016;-51
2021/07/26 09:58:59;;;;;;;6.35;3.20;;;;;;;;;;5074339;28;20052;-51
2021/07/26 10:01:25;;;;;;;5.53;3.22;;;;;;;;;;5073282;28;20021;-50
2021/07/26 10:03:52;;;;;;;5.55;2.90;;;;;;;;;;5073779;28;20024;-50
2021/07/26 10:06:18;;;;;;;6.70;3.22;;;;;;;;;;5074145;28;20105;-50
2021/07/26 10:08:45;;;;;;;6.05;2.75;;;;;;;;;;5084226;28;20024;-51
2021/07/26 10:11:11;;;;;;;4.97;2.97;;;;;;;;;;5084220;28;20021;-51
2021/07/26 10:13:40;;;;;;;13.77;2.88;;;;;;;;;;5093884;28;20488;-51
2021/07/26 10:16:07;;;;;;;5.88;2.75;;;;;;;;;;5085591;28;20074;-50
2021/07/26 10:18:33;;;;;;;7.45;3.55;;;;;;;;;;5085669;28;20032;-51
2021/07/26 10:21:02;;;;;;;7.97;3.03;;;;;;;;;;5085663;28;20027;-51
2021/07/26 10:23:40;;;;;;;9.17;3.47;;;;;;;;;;5074323;28;20032;-50
2021/07/26 10:26:07;;;;;;;8.15;2.47;;;;;;;;;;5084009;28;20009;-51
2021/07/26 10:28:36;;;;;;;8.70;3.13;;;;;;;;;;5084133;28;20038;-50
2021/07/26 10:31:02;;;;;;;12.85;2.70;;;;;;;;;;5083045;28;20017;-50
2021/07/26 10:33:29;;;;;;;5.95;2.72;;;;;;;;;;5080096;28;20097;-50
2021/07/26 10:35:55;;;;;;;2.78;2.00;;;;;;;;;;5086130;28;20524;-51
2021/07/26 10:38:40;;;;;;;3.60;2.55;;;;;;;;;;5090943;28;20023;-51
2021/07/26 10:41:06;;;;;;;5.15;2.92;;;;;;;;;;5092344;28;20040;-50
2021/07/26 10:43:52;;;;;;;4.93;2.65;;;;;;;;;;5093429;28;20032;-50
2021/07/26 10:46:18;;;;;;;4.10;2.90;;;;;;;;;;5087924;28;20021;-50
2021/07/26 10:48:53;;;;;;;8.85;3.50;;;;;;;;;;5093133;28;20047;-51
2021/07/26 10:51:36;;;;;;;5.07;2.58;;;;;;;;;;5092713;28;20031;-50
2021/07/26 10:54:02;;;;;;;5.45;2.45;;;;;;;;;;5093028;28;20461;-51
2021/07/26 10:56:28;;;;;;;3.17;2.40;;;;;;;;;;5093239;28;20031;-50
2021/07/26 10:59:02;;;;;;;3.42;2.47;;;;;;;;;;5092781;28;20345;-51
2021/07/26 11:01:34;;;;;;;3.78;2.60;;;;;;;;;;5092407;28;20048;-51
2021/07/26 11:04:00;;;;;;;6.18;2.83;;;;;;;;;;5093450;28;20098;-51
2021/07/26 11:06:41;;;;;;;3.05;2.00;;;;;;;;;;5093422;28;20425;-51
2021/07/26 11:09:19;;;;;;;5.82;2.30;;;;;;;;;;5092903;28;20020;-51
2021/07/26 11:11:46;;;;;;;5.22;2.45;;;;;;;;;;5091590;28;20039;-51
2021/07/26 11:14:13;;;;;;;5.68;1.95;;;;;;;;;;5093453;28;20032;-51
2021/07/26 11:19:35;;;;;;;14.52;2.50;;;;;;;;;;5092779;28;20036;-51
2021/07/26 11:22:02;;;;;;;5.40;2.45;;;;;;;;;;5091429;28;20038;-51
2021/07/26 11:24:55;;;;;;;4.75;1.98;;;;;;;;;;5092983;28;20456;-50
2021/07/26 11:27:31;;;;;;;4.28;2.80;;;;;;;;;;5091799;28;20033;-51
2021/07/26 11:29:57;;;;;;;5.38;2.78;;;;;;;;;;5092809;28;20047;-51
2021/07/26 11:32:23;;;;;;;6.80;3.55;;;;;;;;;;5091962;28;20031;-51
2021/07/26 11:35:08;;;;;;;4.20;2.10;;;;;;;;;;5092940;28;20021;-51
2021/07/26 11:37:34;;;;;;;3.45;2.33;;;;;;;;;;5092752;28;20020;-51
2021/07/26 11:40:04;;;;;;;4.15;2.70;;;;;;;;;;5092825;28;20119;-50
2021/07/26 11:42:30;;;;;;;3.47;2.25;;;;;;;;;;5091471;28;20051;-51
2021/07/26 11:44:57;;;;;;;4.85;2.92;;;;;;;;;;5092644;28;20063;-51
2021/07/26 11:47:30;;;;;;;4.97;2.65;;;;;;;;;;5092966;28;20024;-51
2021/07/26 11:49:56;;;;;;;7.38;3.10;;;;;;;;;;5092551;28;20457;-51
2021/07/26 11:52:22;;;;;;;5.90;3.28;;;;;;;;;;5091556;28;20085;-51
2021/07/26 11:54:48;;;;;;;6.38;2.88;;;;;;;;;;5092625;28;20024;-51
2021/07/26 11:57:15;;;;;;;6.47;3.40;;;;;;;;;;5092444;28;20028;-50
2021/07/26 11:59:47;;;;;;;12.00;2.80;;;;;;;;;;5088394;28;20059;-51
2021/07/26 12:02:15;;;;;;;3.70;2.58;;;;;;;;;;5080747;28;20024;-51
2021/07/26 12:04:41;;;;;;;4.68;2.75;;;;;;;;;;5081606;28;20016;-51
2021/07/26 12:07:08;;;;;;;4.53;2.85;;;;;;;;;;5089830;28;20077;-51
2021/07/26 12:09:35;;;;;;;7.80;3.22;;;;;;;;;;5092346;28;20020;-50
2021/07/26 12:12:08;;;;;;;3.25;2.30;;;;;;;;;;5093431;28;20067;-50
2021/07/26 12:14:35;;;;;;;6.22;2.97;;;;;;;;;;5096291;28;20020;-51
2021/07/26 12:17:02;;;;;;;5.22;2.22;;;;;;;;;;5096310;28;20020;-51
2021/07/26 12:19:28;;;;;;;9.07;2.50;;;;;;;;;;5096130;28;20063;-50
2021/07/26 12:21:55;;;;;;;3.88;2.28;;;;;;;;;;5095076;28;20028;-50
2021/07/26 12:24:40;;;;;;;3.63;2.33;;;;;;;;;;5095290;28;20028;-51
2021/07/26 12:27:06;;;;;;;5.30;2.85;;;;;;;;;;5095851;28;20031;-51
2021/07/26 12:29:32;;;;;;;4.78;2.90;;;;;;;;;;5096194;28;20021;-50
2021/07/26 12:32:04;;;;;;;5.25;2.55;;;;;;;;;;5095360;28;20119;-51
2021/07/26 12:34:30;;;;;;;4.75;2.55;;;;;;;;;;5090691;28;20100;-51
2021/07/26 12:37:06;;;;;;;4.50;2.25;;;;;;;;;;5075236;28;20027;-51
2021/07/26 12:39:39;;;;;;;3.38;2.03;;;;;;;;;;5093643;28;20032;-51
2021/07/26 12:42:21;;;;;;;8.38;3.42;;;;;;;;;;5087078;28;20100;-51
2021/07/26 12:44:48;;;;;;;4.55;2.88;;;;;;;;;;5095400;28;20138;-51
2021/07/26 12:47:33;;;;;;;4.72;2.58;;;;;;;;;;5095444;28;20149;-51
2021/07/26 12:49:59;;;;;;;6.10;2.80;;;;;;;;;;5095492;28;20032;-50
2021/07/26 12:52:25;;;;;;;3.65;2.45;;;;;;;;;;5093771;28;20024;-50
2021/07/26 12:54:52;;;;;;;3.65;2.22;;;;;;;;;;5082821;28;20032;-50
2021/07/26 12:57:18;;;;;;;7.93;3.35;;;;;;;;;;5080182;28;20032;-50
2021/07/26 12:59:44;;;;;;;4.93;2.78;;;;;;;;;;5087293;28;20024;-51
2021/07/26 13:02:10;;;;;;;4.13;2.50;;;;;;;;;;5093338;28;20078;-51
2021/07/26 13:04:37;;;;;;;6.22;2.20;;;;;;;;;;5093654;28;20395;-51
2021/07/26 13:07:03;;;;;;;2.95;2.15;;;;;;;;;;5095296;28;20049;-51
2021/07/26 13:09:29;;;;;;;6.53;2.97;;;;;;;;;;5094885;28;20032;-51
2021/07/26 13:11:55;;;;;;;5.97;2.65;;;;;;;;;;5094592;28;20443;-51
2021/07/26 13:14:21;;;;;;;4.13;2.80;;;;;;;;;;5095071;28;20016;-51
2021/07/26 13:16:47;;;;;;;4.75;2.60;;;;;;;;;;5095015;28;20441;-51
2021/07/26 13:19:13;;;;;;;6.47;2.40;;;;;;;;;;5095183;28;20077;-51
2021/07/26 13:21:39;;;;;;;3.40;2.58;;;;;;;;;;5094117;28;20067;-51
2021/07/26 13:24:05;;;;;;;4.20;2.83;;;;;;;;;;5094685;28;20055;-51
2021/07/26 13:26:31;;;;;;;3.78;2.42;;;;;;;;;;5095263;28;20067;-51
2021/07/26 13:28:57;;;;;;;7.53;2.65;;;;;;;;;;5094321;28;20379;-51
2021/07/26 13:31:23;;;;;;;7.25;2.92;;;;;;;;;;5094393;28;20445;-51
2021/07/26 13:33:49;;;;;;;7.07;2.50;;;;;;;;;;5094662;28;20450;-51
2021/07/26 13:36:15;;;;;;;6.07;3.17;;;;;;;;;;5075080;28;20024;-51
2021/07/26 13:38:41;;;;;;;4.03;2.30;;;;;;;;;;5074305;28;20032;-51
2021/07/26 13:41:07;;;;;;;9.55;3.22;;;;;;;;;;5073590;28;20096;-51
2021/07/26 13:43:33;;;;;;;3.83;2.28;;;;;;;;;;5073784;28;20045;-51
2021/07/26 13:46:00;;;;;;;6.18;2.58;;;;;;;;;;5074432;28;20032;-52
2021/07/26 13:48:26;;;;;;;3.67;2.22;;;;;;;;;;5074313;28;20031;-51
2021/07/26 13:50:52;;;;;;;4.88;2.25;;;;;;;;;;5073471;28;20024;-51
2021/07/26 13:53:18;;;;;;;4.03;2.80;;;;;;;;;;5074037;28;20375;-51
2021/07/26 13:55:44;;;;;;;5.13;2.58;;;;;;;;;;5074131;28;20020;-51
2021/07/26 13:58:10;;;;;;;4.20;2.20;;;;;;;;;;5073768;28;20100;-51
2021/07/26 14:00:36;;;;;;;4.82;2.70;;;;;;;;;;5073358;28;20090;-51
2021/07/26 14:03:02;;;;;;;6.90;2.85;;;;;;;;;;5074058;28;20446;-51
2021/07/26 14:05:28;;;;;;;6.03;3.03;;;;;;;;;;5073710;28;20428;-51
2021/07/26 14:07:54;;;;;;;4.68;2.63;;;;;;;;;;5073697;28;20458;-51
2021/07/26 14:10:20;;;;;;;3.92;2.58;;;;;;;;;;5073684;28;20029;-51
2021/07/26 14:12:46;;;;;;;4.65;2.70;;;;;;;;;;5072694;28;20411;-51
2021/07/26 14:15:12;;;;;;;6.18;2.65;;;;;;;;;;5073888;28;20013;-51
2021/07/26 14:17:39;;;;;;;4.78;2.20;;;;;;;;;;5073945;28;20070;-51
2021/07/26 14:20:06;;;;;;;4.78;2.13;;;;;;;;;;5073582;28;20354;-51
2021/07/26 14:22:32;;;;;;;5.40;2.63;;;;;;;;;;5072584;28;20525;-51
2021/07/26 14:24:57;;;;;;;8.30;2.22;;;;;;;;;;5073512;28;20162;-51
2021/07/26 14:27:23;;;;;;;5.60;2.50;;;;;;;;;;5073226;28;20035;-51
2021/07/26 14:29:50;;;;;;;5.28;2.28;;;;;;;;;;5073679;28;20020;-51
2021/07/26 14:32:15;;;;;;;4.38;2.20;;;;;;;;;;5072272;28;20032;-51
2021/07/26 14:34:41;;;;;;;2.88;2.30;;;;;;;;;;5072979;28;20031;-51
2021/07/26 14:37:07;;;;;;;3.55;2.47;;;;;;;;;;5073445;28;20480;-51
2021/07/26 14:39:34;;;;;;;4.50;3.10;;;;;;;;;;5073056;28;20637;-51
2021/07/26 14:42:00;;;;;;;6.22;2.55;;;;;;;;;;5072024;28;20441;-51
2021/07/26 14:44:26;;;;;;;9.07;3.42;;;;;;;;;;5073410;28;20059;-51
2021/07/26 14:46:54;;;;;;;3.88;2.28;;;;;;;;;;5073320;28;20457;-51
2021/07/26 14:49:20;;;;;;;3.90;2.35;;;;;;;;;;5072615;28;20358;-51